Blue Hill, Arkansas
Current Conditions -  °F | °C
As of 10:58 AM on Thursday 18 Dec 2014 (Local Time) from KLRF Reporting Station
Haze Haze  
Wind Chill: 39°   Ceiling: 500
Heat Index: 39°   Visibility: 6mi
Dew Point: 39°   Wind: 3mph
Humidity: 98%   Direction: 60°ENE
Pressure: 30.24"   Gusts: NA
Location:  34.868°N, 92.3217°W
Report Text: KLRF 181658Z AUTO 06003KT 6SM BR OVC005 04/04 A3024 RMK AO2 SLP245 T00400037
Loading
Personal Weather Stations






























Interactive Weather Map New forecast layout! Learn more

10-Day Weather Forecast

Advertisements
Track Severe Weather on mobile